Strona główna
METAR-TAF:

METAR-TAF

Lotnisko :

Port lotniczy Phetchabun

Phetchabun, Tajlandia

Szerokość geograficzna: 16-40-33N, Długość geograficzna: 101-11-42E, wysokość: 137 m

Aktualna obserwacja pogody

Raport powstał 1 godzina i 3 minut temu, godzina 06:00 UTC
Wiatr 4 kt od północ w porywach dochodzący do 14 kt
Temperatura 34°C
Wilgotność 30%
Ciśnienie 1011 hPa
Widzialność: 6000 m
Mało chmury na wysokości 2500 ft

METAR: VTPB 280600Z 35004G14KT 6000 FEW025 34/14 Q1011 NOSIG

czas: 14:03 (07:03 UTC)

Prognoza

Raport powstał 2 godziny i 3 minut temu, godzina 05:00 UTC
Prognoza ważna od 28 godzina 06 UTC do 29 godzina 06 UTC
Wiatr 7 kt od północ
Widzialność: 6000 m
Mało chmury na wysokości 2500 ft

TAF: VTPB 280500Z 2806/2906 35007KT 6000 FEW025

Obserwacja i prognoza pogody dla ponad 4000 lotnisk (raport METAR i TAF).

Dostępne stacje oznaczono żółtymi i czerwonymi punktami na mapie.

Najedź kursorem aby zobaczyć nazwę stacji.

Kliknij aby zobaczyć obserwacje i prognozy pogody.

Aby zmienić mapę: kliknij na zielony przycisk z czarnym krzyżykiem, aby powiększyć; na zielony przycisk z myślnikiem, aby pomniejszyć; na zielone strzałki, aby przejść do map sąsiednich.


METAR-TAF: